sensor_id;sensor_type;location;lat;lon;timestamp;P1;durP1;ratioP1;P2;durP2;ratioP2
60964;SDS011;46834;51.100;6.886;2022-08-19T00:00:33;3.38;;;3.00;;
60964;SDS011;46834;51.100;6.886;2022-08-19T00:03:01;5.90;;;3.25;;
60964;SDS011;46834;51.100;6.886;2022-08-19T00:05:31;3.75;;;3.33;;
60964;SDS011;46834;51.100;6.886;2022-08-19T00:07:57;3.65;;;3.33;;
60964;SDS011;46834;51.100;6.886;2022-08-19T00:10:23;4.03;;;3.40;;
60964;SDS011;46834;51.100;6.886;2022-08-19T00:12:50;5.47;;;3.67;;
60964;SDS011;46834;51.100;6.886;2022-08-19T00:15:17;8.15;;;3.20;;
60964;SDS011;46834;51.100;6.886;2022-08-19T00:17:46;4.88;;;3.35;;
60964;SDS011;46834;51.100;6.886;2022-08-19T00:20:14;3.33;;;2.78;;
60964;SDS011;46834;51.100;6.886;2022-08-19T00:22:44;3.75;;;3.42;;
60964;SDS011;46834;51.100;6.886;2022-08-19T00:25:12;4.70;;;3.42;;
60964;SDS011;46834;51.100;6.886;2022-08-19T00:27:39;4.32;;;3.25;;
60964;SDS011;46834;51.100;6.886;2022-08-19T00:30:05;4.57;;;3.42;;
60964;SDS011;46834;51.100;6.886;2022-08-19T00:32:32;3.67;;;3.13;;
60964;SDS011;46834;51.100;6.886;2022-08-19T00:34:59;4.93;;;3.15;;
60964;SDS011;46834;51.100;6.886;2022-08-19T00:37:26;4.30;;;3.25;;
60964;SDS011;46834;51.100;6.886;2022-08-19T00:39:52;4.07;;;3.47;;
60964;SDS011;46834;51.100;6.886;2022-08-19T00:42:19;4.20;;;3.45;;
60964;SDS011;46834;51.100;6.886;2022-08-19T00:44:46;3.88;;;3.47;;
60964;SDS011;46834;51.100;6.886;2022-08-19T00:47:12;4.72;;;3.67;;
60964;SDS011;46834;51.100;6.886;2022-08-19T00:49:43;5.97;;;3.75;;
60964;SDS011;46834;51.100;6.886;2022-08-19T00:52:29;3.50;;;3.20;;
60964;SDS011;46834;51.100;6.886;2022-08-19T00:55:03;6.90;;;3.30;;
60964;SDS011;46834;51.100;6.886;2022-08-19T00:57:36;3.85;;;3.45;;
60964;SDS011;46834;51.100;6.886;2022-08-19T01:00:08;5.07;;;4.28;;
60964;SDS011;46834;51.100;6.886;2022-08-19T01:02:39;4.80;;;3.50;;
60964;SDS011;46834;51.100;6.886;2022-08-19T01:05:08;4.75;;;3.80;;
60964;SDS011;46834;51.100;6.886;2022-08-19T01:07:40;4.38;;;3.65;;
60964;SDS011;46834;51.100;6.886;2022-08-19T01:10:10;4.63;;;4.13;;
60964;SDS011;46834;51.100;6.886;2022-08-19T01:12:43;5.28;;;4.78;;
60964;SDS011;46834;51.100;6.886;2022-08-19T01:15:12;5.72;;;4.70;;
60964;SDS011;46834;51.100;6.886;2022-08-19T01:17:42;5.70;;;5.00;;
60964;SDS011;46834;51.100;6.886;2022-08-19T01:20:11;6.35;;;4.45;;
60964;SDS011;46834;51.100;6.886;2022-08-19T01:22:44;7.82;;;4.45;;
60964;SDS011;46834;51.100;6.886;2022-08-19T01:25:15;4.65;;;4.20;;
60964;SDS011;46834;51.100;6.886;2022-08-19T01:27:45;6.50;;;4.32;;
60964;SDS011;46834;51.100;6.886;2022-08-19T01:30:15;5.82;;;4.18;;
60964;SDS011;46834;51.100;6.886;2022-08-19T01:32:49;9.43;;;4.13;;
60964;SDS011;46834;51.100;6.886;2022-08-19T01:35:17;6.53;;;4.22;;
60964;SDS011;46834;51.100;6.886;2022-08-19T01:37:50;4.63;;;3.97;;
60964;SDS011;46834;51.100;6.886;2022-08-19T01:40:22;12.40;;;4.20;;
60964;SDS011;46834;51.100;6.886;2022-08-19T01:42:51;5.28;;;4.68;;
60964;SDS011;46834;51.100;6.886;2022-08-19T01:45:18;5.28;;;4.28;;
60964;SDS011;46834;51.100;6.886;2022-08-19T01:47:47;4.75;;;4.22;;
60964;SDS011;46834;51.100;6.886;2022-08-19T01:50:13;6.55;;;4.47;;
60964;SDS011;46834;51.100;6.886;2022-08-19T01:52:40;6.28;;;4.07;;
60964;SDS011;46834;51.100;6.886;2022-08-19T01:55:10;4.53;;;3.88;;
60964;SDS011;46834;51.100;6.886;2022-08-19T01:57:41;4.47;;;4.00;;
60964;SDS011;46834;51.100;6.886;2022-08-19T02:00:14;6.28;;;4.57;;
60964;SDS011;46834;51.100;6.886;2022-08-19T02:02:45;5.82;;;4.57;;
60964;SDS011;46834;51.100;6.886;2022-08-19T02:05:10;5.05;;;4.55;;
60964;SDS011;46834;51.100;6.886;2022-08-19T02:07:37;5.03;;;4.50;;
60964;SDS011;46834;51.100;6.886;2022-08-19T02:10:06;6.70;;;5.30;;
60964;SDS011;46834;51.100;6.886;2022-08-19T02:12:35;6.28;;;5.68;;
60964;SDS011;46834;51.100;6.886;2022-08-19T02:15:02;8.77;;;6.07;;
60964;SDS011;46834;51.100;6.886;2022-08-19T02:17:29;6.13;;;5.53;;
60964;SDS011;46834;51.100;6.886;2022-08-19T02:19:56;7.20;;;5.28;;
60964;SDS011;46834;51.100;6.886;2022-08-19T02:22:22;6.32;;;5.35;;
60964;SDS011;46834;51.100;6.886;2022-08-19T02:24:50;6.57;;;5.78;;
60964;SDS011;46834;51.100;6.886;2022-08-19T02:27:17;7.00;;;5.72;;
60964;SDS011;46834;51.100;6.886;2022-08-19T02:29:45;8.80;;;6.43;;
60964;SDS011;46834;51.100;6.886;2022-08-19T02:32:12;7.45;;;6.18;;
60964;SDS011;46834;51.100;6.886;2022-08-19T02:34:38;8.60;;;5.75;;
60964;SDS011;46834;51.100;6.886;2022-08-19T02:37:04;9.32;;;6.40;;
60964;SDS011;46834;51.100;6.886;2022-08-19T02:39:30;6.82;;;6.03;;
60964;SDS011;46834;51.100;6.886;2022-08-19T02:41:56;6.78;;;6.07;;
60964;SDS011;46834;51.100;6.886;2022-08-19T02:44:24;8.07;;;6.63;;
60964;SDS011;46834;51.100;6.886;2022-08-19T02:46:50;7.82;;;6.07;;
60964;SDS011;46834;51.100;6.886;2022-08-19T02:49:16;9.25;;;7.10;;
60964;SDS011;46834;51.100;6.886;2022-08-19T02:51:42;8.07;;;6.32;;
60964;SDS011;46834;51.100;6.886;2022-08-19T02:54:11;7.50;;;6.68;;
60964;SDS011;46834;51.100;6.886;2022-08-19T02:56:39;7.70;;;6.47;;
60964;SDS011;46834;51.100;6.886;2022-08-19T02:59:07;6.90;;;6.03;;
60964;SDS011;46834;51.100;6.886;2022-08-19T03:01:35;7.05;;;6.35;;
60964;SDS011;46834;51.100;6.886;2022-08-19T03:04:04;7.35;;;6.43;;
60964;SDS011;46834;51.100;6.886;2022-08-19T03:06:32;6.72;;;6.13;;
60964;SDS011;46834;51.100;6.886;2022-08-19T03:09:01;7.88;;;6.93;;
60964;SDS011;46834;51.100;6.886;2022-08-19T03:11:28;8.02;;;6.63;;
60964;SDS011;46834;51.100;6.886;2022-08-19T03:13:58;10.75;;;7.10;;
60964;SDS011;46834;51.100;6.886;2022-08-19T03:16:26;10.40;;;7.15;;
60964;SDS011;46834;51.100;6.886;2022-08-19T03:18:56;8.73;;;6.85;;
60964;SDS011;46834;51.100;6.886;2022-08-19T03:21:27;8.45;;;6.95;;
60964;SDS011;46834;51.100;6.886;2022-08-19T03:23:57;9.70;;;7.75;;
60964;SDS011;46834;51.100;6.886;2022-08-19T03:26:26;8.50;;;7.63;;
60964;SDS011;46834;51.100;6.886;2022-08-19T03:28:51;7.93;;;6.75;;
60964;SDS011;46834;51.100;6.886;2022-08-19T03:31:19;9.65;;;7.25;;
60964;SDS011;46834;51.100;6.886;2022-08-19T03:33:50;10.93;;;7.88;;
60964;SDS011;46834;51.100;6.886;2022-08-19T03:36:17;8.20;;;7.40;;
60964;SDS011;46834;51.100;6.886;2022-08-19T03:38:48;11.15;;;7.95;;
60964;SDS011;46834;51.100;6.886;2022-08-19T03:41:21;9.93;;;7.47;;
60964;SDS011;46834;51.100;6.886;2022-08-19T03:43:53;8.98;;;8.07;;
60964;SDS011;46834;51.100;6.886;2022-08-19T03:46:20;9.02;;;7.57;;
60964;SDS011;46834;51.100;6.886;2022-08-19T03:48:52;9.57;;;7.10;;
60964;SDS011;46834;51.100;6.886;2022-08-19T03:51:25;9.07;;;7.60;;
60964;SDS011;46834;51.100;6.886;2022-08-19T03:53:56;8.27;;;7.25;;
60964;SDS011;46834;51.100;6.886;2022-08-19T03:56:25;8.85;;;7.88;;
60964;SDS011;46834;51.100;6.886;2022-08-19T03:58:54;11.02;;;8.55;;
60964;SDS011;46834;51.100;6.886;2022-08-19T04:01:24;9.65;;;7.85;;
60964;SDS011;46834;51.100;6.886;2022-08-19T04:03:53;10.50;;;8.00;;
60964;SDS011;46834;51.100;6.886;2022-08-19T04:06:25;8.98;;;7.97;;
60964;SDS011;46834;51.100;6.886;2022-08-19T04:08:57;10.90;;;8.65;;
60964;SDS011;46834;51.100;6.886;2022-08-19T04:11:27;10.65;;;8.73;;
60964;SDS011;46834;51.100;6.886;2022-08-19T04:13:58;13.93;;;9.88;;
60964;SDS011;46834;51.100;6.886;2022-08-19T04:16:25;13.18;;;10.20;;
60964;SDS011;46834;51.100;6.886;2022-08-19T04:18:56;10.93;;;9.45;;
60964;SDS011;46834;51.100;6.886;2022-08-19T04:21:27;15.18;;;10.02;;
60964;SDS011;46834;51.100;6.886;2022-08-19T04:23:54;15.02;;;11.60;;
60964;SDS011;46834;51.100;6.886;2022-08-19T04:26:26;13.77;;;10.98;;
60964;SDS011;46834;51.100;6.886;2022-08-19T04:28:57;18.92;;;10.98;;
60964;SDS011;46834;51.100;6.886;2022-08-19T04:31:25;16.58;;;12.02;;
60964;SDS011;46834;51.100;6.886;2022-08-19T04:33:55;15.63;;;11.50;;
60964;SDS011;46834;51.100;6.886;2022-08-19T04:36:27;16.98;;;12.27;;
60964;SDS011;46834;51.100;6.886;2022-08-19T04:38:58;15.77;;;11.60;;
60964;SDS011;46834;51.100;6.886;2022-08-19T04:41:34;16.42;;;13.10;;
60964;SDS011;46834;51.100;6.886;2022-08-19T04:44:20;15.95;;;12.93;;
60964;SDS011;46834;51.100;6.886;2022-08-19T04:46:47;16.00;;;12.73;;
60964;SDS011;46834;51.100;6.886;2022-08-19T04:49:15;16.20;;;12.68;;
60964;SDS011;46834;51.100;6.886;2022-08-19T04:51:43;16.20;;;13.13;;
60964;SDS011;46834;51.100;6.886;2022-08-19T04:54:12;22.25;;;13.57;;
60964;SDS011;46834;51.100;6.886;2022-08-19T04:56:38;16.17;;;13.70;;
60964;SDS011;46834;51.100;6.886;2022-08-19T04:59:05;20.77;;;14.35;;
60964;SDS011;46834;51.100;6.886;2022-08-19T05:01:31;20.67;;;13.48;;
60964;SDS011;46834;51.100;6.886;2022-08-19T05:04:02;28.10;;;15.52;;
60964;SDS011;46834;51.100;6.886;2022-08-19T05:06:32;20.98;;;13.82;;
60964;SDS011;46834;51.100;6.886;2022-08-19T05:08:59;19.67;;;14.32;;
60964;SDS011;46834;51.100;6.886;2022-08-19T05:11:31;22.48;;;14.05;;
60964;SDS011;46834;51.100;6.886;2022-08-19T05:14:04;18.55;;;14.63;;
60964;SDS011;46834;51.100;6.886;2022-08-19T05:16:34;20.40;;;14.38;;
60964;SDS011;46834;51.100;6.886;2022-08-19T05:19:00;22.13;;;14.20;;
60964;SDS011;46834;51.100;6.886;2022-08-19T05:21:44;22.02;;;15.38;;
60964;SDS011;46834;51.100;6.886;2022-08-19T05:24:29;23.95;;;14.32;;
60964;SDS011;46834;51.100;6.886;2022-08-19T05:26:59;17.63;;;14.38;;
60964;SDS011;46834;51.100;6.886;2022-08-19T05:29:27;18.42;;;14.68;;
60964;SDS011;46834;51.100;6.886;2022-08-19T05:31:54;18.88;;;14.95;;
60964;SDS011;46834;51.100;6.886;2022-08-19T05:34:21;20.02;;;14.90;;
60964;SDS011;46834;51.100;6.886;2022-08-19T05:36:51;23.33;;;15.60;;
60964;SDS011;46834;51.100;6.886;2022-08-19T05:39:22;20.13;;;15.48;;
60964;SDS011;46834;51.100;6.886;2022-08-19T05:41:53;19.67;;;14.98;;
60964;SDS011;46834;51.100;6.886;2022-08-19T05:44:26;17.48;;;14.32;;
60964;SDS011;46834;51.100;6.886;2022-08-19T05:46:58;23.23;;;14.80;;
60964;SDS011;46834;51.100;6.886;2022-08-19T05:49:28;24.95;;;14.68;;
60964;SDS011;46834;51.100;6.886;2022-08-19T05:51:57;18.10;;;15.15;;
60964;SDS011;46834;51.100;6.886;2022-08-19T05:54:24;18.45;;;14.77;;
60964;SDS011;46834;51.100;6.886;2022-08-19T05:56:51;16.73;;;13.98;;
60964;SDS011;46834;51.100;6.886;2022-08-19T05:59:19;16.27;;;14.07;;
60964;SDS011;46834;51.100;6.886;2022-08-19T06:01:47;18.20;;;14.98;;
60964;SDS011;46834;51.100;6.886;2022-08-19T06:04:19;18.30;;;14.13;;
60964;SDS011;46834;51.100;6.886;2022-08-19T06:06:49;16.90;;;14.65;;
60964;SDS011;46834;51.100;6.886;2022-08-19T06:09:17;17.63;;;14.75;;
60964;SDS011;46834;51.100;6.886;2022-08-19T06:11:48;16.45;;;13.50;;
60964;SDS011;46834;51.100;6.886;2022-08-19T06:14:22;15.77;;;13.20;;
60964;SDS011;46834;51.100;6.886;2022-08-19T06:16:51;18.08;;;14.43;;
60964;SDS011;46834;51.100;6.886;2022-08-19T06:19:20;19.45;;;14.52;;
60964;SDS011;46834;51.100;6.886;2022-08-19T06:21:49;22.27;;;14.77;;
60964;SDS011;46834;51.100;6.886;2022-08-19T06:24:18;19.45;;;14.02;;
60964;SDS011;46834;51.100;6.886;2022-08-19T06:26:48;19.23;;;14.82;;
60964;SDS011;46834;51.100;6.886;2022-08-19T06:29:18;17.80;;;14.50;;
60964;SDS011;46834;51.100;6.886;2022-08-19T06:31:48;17.50;;;13.70;;
60964;SDS011;46834;51.100;6.886;2022-08-19T06:34:17;22.08;;;14.18;;
60964;SDS011;46834;51.100;6.886;2022-08-19T06:36:45;23.20;;;13.90;;
60964;SDS011;46834;51.100;6.886;2022-08-19T06:39:16;17.35;;;13.95;;
60964;SDS011;46834;51.100;6.886;2022-08-19T06:41:54;15.10;;;12.68;;
60964;SDS011;46834;51.100;6.886;2022-08-19T06:44:23;15.75;;;13.25;;
60964;SDS011;46834;51.100;6.886;2022-08-19T06:46:54;18.30;;;13.60;;
60964;SDS011;46834;51.100;6.886;2022-08-19T06:49:21;18.20;;;13.80;;
60964;SDS011;46834;51.100;6.886;2022-08-19T06:51:48;18.98;;;13.35;;
60964;SDS011;46834;51.100;6.886;2022-08-19T06:54:15;16.90;;;13.23;;
60964;SDS011;46834;51.100;6.886;2022-08-19T06:56:43;16.98;;;12.93;;
60964;SDS011;46834;51.100;6.886;2022-08-19T06:59:11;13.85;;;11.95;;
60964;SDS011;46834;51.100;6.886;2022-08-19T07:01:41;14.65;;;12.05;;
60964;SDS011;46834;51.100;6.886;2022-08-19T07:04:11;16.98;;;12.18;;
60964;SDS011;46834;51.100;6.886;2022-08-19T07:06:40;17.20;;;12.77;;
60964;SDS011;46834;51.100;6.886;2022-08-19T07:09:10;17.02;;;11.30;;
60964;SDS011;46834;51.100;6.886;2022-08-19T07:11:47;12.07;;;10.63;;
60964;SDS011;46834;51.100;6.886;2022-08-19T07:14:18;13.68;;;11.07;;
60964;SDS011;46834;51.100;6.886;2022-08-19T07:16:49;12.85;;;10.88;;
60964;SDS011;46834;51.100;6.886;2022-08-19T07:19:16;12.88;;;11.35;;
60964;SDS011;46834;51.100;6.886;2022-08-19T07:21:43;13.95;;;10.60;;
60964;SDS011;46834;51.100;6.886;2022-08-19T07:24:17;14.05;;;11.05;;
60964;SDS011;46834;51.100;6.886;2022-08-19T07:26:45;13.27;;;10.68;;
60964;SDS011;46834;51.100;6.886;2022-08-19T07:29:11;14.70;;;11.88;;
60964;SDS011;46834;51.100;6.886;2022-08-19T07:31:38;17.45;;;11.52;;
60964;SDS011;46834;51.100;6.886;2022-08-19T07:34:05;12.75;;;11.05;;
60964;SDS011;46834;51.100;6.886;2022-08-19T07:36:33;13.68;;;10.82;;
60964;SDS011;46834;51.100;6.886;2022-08-19T07:39:06;12.68;;;10.45;;
60964;SDS011;46834;51.100;6.886;2022-08-19T07:41:37;14.15;;;10.70;;
60964;SDS011;46834;51.100;6.886;2022-08-19T07:44:04;13.55;;;11.30;;
60964;SDS011;46834;51.100;6.886;2022-08-19T07:46:32;14.10;;;11.35;;
60964;SDS011;46834;51.100;6.886;2022-08-19T07:49:02;14.95;;;11.38;;
60964;SDS011;46834;51.100;6.886;2022-08-19T07:51:30;14.85;;;11.10;;
60964;SDS011;46834;51.100;6.886;2022-08-19T07:53:56;13.50;;;10.80;;
60964;SDS011;46834;51.100;6.886;2022-08-19T07:56:22;13.95;;;11.52;;
60964;SDS011;46834;51.100;6.886;2022-08-19T07:58:49;17.33;;;11.23;;
60964;SDS011;46834;51.100;6.886;2022-08-19T08:01:19;16.08;;;12.60;;
60964;SDS011;46834;51.100;6.886;2022-08-19T08:03:50;17.08;;;12.93;;
60964;SDS011;46834;51.100;6.886;2022-08-19T08:06:36;15.75;;;12.15;;
60964;SDS011;46834;51.100;6.886;2022-08-19T08:09:29;15.05;;;12.85;;
60964;SDS011;46834;51.100;6.886;2022-08-19T08:12:02;21.48;;;13.45;;
60964;SDS011;46834;51.100;6.886;2022-08-19T08:14:34;17.63;;;13.25;;
60964;SDS011;46834;51.100;6.886;2022-08-19T08:17:07;19.30;;;14.10;;
60964;SDS011;46834;51.100;6.886;2022-08-19T08:19:33;19.20;;;13.48;;
60964;SDS011;46834;51.100;6.886;2022-08-19T08:22:01;19.33;;;14.50;;
60964;SDS011;46834;51.100;6.886;2022-08-19T08:24:30;16.50;;;14.55;;
60964;SDS011;46834;51.100;6.886;2022-08-19T08:26:57;16.63;;;14.38;;
60964;SDS011;46834;51.100;6.886;2022-08-19T08:29:25;19.50;;;13.75;;
60964;SDS011;46834;51.100;6.886;2022-08-19T08:31:54;22.25;;;14.40;;
60964;SDS011;46834;51.100;6.886;2022-08-19T08:34:20;18.63;;;14.20;;
60964;SDS011;46834;51.100;6.886;2022-08-19T08:36:47;21.42;;;15.50;;
60964;SDS011;46834;51.100;6.886;2022-08-19T08:39:14;16.73;;;13.73;;
60964;SDS011;46834;51.100;6.886;2022-08-19T08:41:53;17.45;;;13.50;;
60964;SDS011;46834;51.100;6.886;2022-08-19T08:44:47;19.52;;;14.00;;
60964;SDS011;46834;51.100;6.886;2022-08-19T08:47:22;19.52;;;13.52;;
60964;SDS011;46834;51.100;6.886;2022-08-19T08:49:52;17.70;;;13.23;;
60964;SDS011;46834;51.100;6.886;2022-08-19T08:52:33;19.40;;;14.43;;
60964;SDS011;46834;51.100;6.886;2022-08-19T08:55:10;18.05;;;13.85;;
60964;SDS011;46834;51.100;6.886;2022-08-19T09:00:37;15.07;;;12.48;;
60964;SDS011;46834;51.100;6.886;2022-08-19T09:03:21;19.08;;;14.38;;
60964;SDS011;46834;51.100;6.886;2022-08-19T09:11:30;16.70;;;11.55;;
60964;SDS011;46834;51.100;6.886;2022-08-19T09:17:23;16.20;;;11.30;;
60964;SDS011;46834;51.100;6.886;2022-08-19T09:22:33;14.07;;;10.73;;
60964;SDS011;46834;51.100;6.886;2022-08-19T09:25:05;14.98;;;11.38;;
60964;SDS011;46834;51.100;6.886;2022-08-19T09:27:36;12.70;;;9.98;;
60964;SDS011;46834;51.100;6.886;2022-08-19T09:30:05;14.25;;;10.52;;
60964;SDS011;46834;51.100;6.886;2022-08-19T09:32:33;12.70;;;10.73;;
60964;SDS011;46834;51.100;6.886;2022-08-19T09:34:59;14.55;;;10.70;;
60964;SDS011;46834;51.100;6.886;2022-08-19T09:37:26;17.70;;;10.88;;
60964;SDS011;46834;51.100;6.886;2022-08-19T09:39:52;12.45;;;10.40;;
60964;SDS011;46834;51.100;6.886;2022-08-19T09:42:18;13.18;;;10.23;;
60964;SDS011;46834;51.100;6.886;2022-08-19T09:44:44;12.55;;;9.45;;
60964;SDS011;46834;51.100;6.886;2022-08-19T09:47:11;12.98;;;9.70;;
60964;SDS011;46834;51.100;6.886;2022-08-19T09:49:38;13.90;;;9.68;;
60964;SDS011;46834;51.100;6.886;2022-08-19T09:52:06;14.75;;;10.32;;
60964;SDS011;46834;51.100;6.886;2022-08-19T09:54:35;14.50;;;9.40;;
60964;SDS011;46834;51.100;6.886;2022-08-19T09:57:03;14.57;;;9.90;;
60964;SDS011;46834;51.100;6.886;2022-08-19T09:59:29;13.93;;;9.25;;
60964;SDS011;46834;51.100;6.886;2022-08-19T10:01:55;9.20;;;7.65;;
60964;SDS011;46834;51.100;6.886;2022-08-19T10:04:21;9.32;;;6.60;;
60964;SDS011;46834;51.100;6.886;2022-08-19T10:06:48;5.93;;;5.32;;
60964;SDS011;46834;51.100;6.886;2022-08-19T10:09:16;6.18;;;5.10;;
60964;SDS011;46834;51.100;6.886;2022-08-19T10:11:43;5.43;;;4.75;;
60964;SDS011;46834;51.100;6.886;2022-08-19T10:14:13;4.85;;;4.25;;
60964;SDS011;46834;51.100;6.886;2022-08-19T10:16:40;5.55;;;4.53;;
60964;SDS011;46834;51.100;6.886;2022-08-19T10:19:07;5.38;;;4.85;;
60964;SDS011;46834;51.100;6.886;2022-08-19T10:21:34;6.18;;;5.10;;
60964;SDS011;46834;51.100;6.886;2022-08-19T10:24:01;6.43;;;5.50;;
60964;SDS011;46834;51.100;6.886;2022-08-19T10:26:31;7.30;;;5.45;;
60964;SDS011;46834;51.100;6.886;2022-08-19T10:29:02;7.93;;;5.72;;
60964;SDS011;46834;51.100;6.886;2022-08-19T10:31:30;6.80;;;5.55;;
60964;SDS011;46834;51.100;6.886;2022-08-19T10:33:58;7.03;;;5.22;;
60964;SDS011;46834;51.100;6.886;2022-08-19T10:36:27;8.25;;;5.30;;
60964;SDS011;46834;51.100;6.886;2022-08-19T10:39:06;5.68;;;5.07;;
60964;SDS011;46834;51.100;6.886;2022-08-19T10:41:36;5.50;;;4.57;;
60964;SDS011;46834;51.100;6.886;2022-08-19T10:44:05;5.65;;;4.80;;
60964;SDS011;46834;51.100;6.886;2022-08-19T10:46:36;6.10;;;4.53;;
60964;SDS011;46834;51.100;6.886;2022-08-19T10:49:06;6.95;;;5.25;;
60964;SDS011;46834;51.100;6.886;2022-08-19T10:51:34;7.68;;;5.18;;
60964;SDS011;46834;51.100;6.886;2022-08-19T10:54:19;6.53;;;5.38;;
60964;SDS011;46834;51.100;6.886;2022-08-19T10:56:45;5.80;;;5.20;;
60964;SDS011;46834;51.100;6.886;2022-08-19T11:01:54;8.45;;;5.70;;
60964;SDS011;46834;51.100;6.886;2022-08-19T11:04:29;7.50;;;5.28;;
60964;SDS011;46834;51.100;6.886;2022-08-19T11:06:56;6.93;;;5.32;;
60964;SDS011;46834;51.100;6.886;2022-08-19T11:09:23;7.70;;;5.55;;
60964;SDS011;46834;51.100;6.886;2022-08-19T11:11:52;7.95;;;5.85;;
60964;SDS011;46834;51.100;6.886;2022-08-19T11:14:20;7.28;;;6.10;;
60964;SDS011;46834;51.100;6.886;2022-08-19T11:16:46;6.07;;;5.38;;
60964;SDS011;46834;51.100;6.886;2022-08-19T11:19:14;6.78;;;5.47;;
60964;SDS011;46834;51.100;6.886;2022-08-19T11:21:44;6.38;;;5.63;;
60964;SDS011;46834;51.100;6.886;2022-08-19T11:24:14;7.05;;;5.32;;
60964;SDS011;46834;51.100;6.886;2022-08-19T11:26:46;6.88;;;5.15;;
60964;SDS011;46834;51.100;6.886;2022-08-19T11:29:14;6.15;;;4.97;;
60964;SDS011;46834;51.100;6.886;2022-08-19T11:31:44;6.57;;;5.20;;
60964;SDS011;46834;51.100;6.886;2022-08-19T11:34:15;6.25;;;4.72;;
60964;SDS011;46834;51.100;6.886;2022-08-19T11:36:45;6.85;;;5.40;;
60964;SDS011;46834;51.100;6.886;2022-08-19T11:39:13;5.18;;;4.68;;
60964;SDS011;46834;51.100;6.886;2022-08-19T11:41:42;4.72;;;4.32;;
60964;SDS011;46834;51.100;6.886;2022-08-19T11:44:08;7.57;;;4.97;;
60964;SDS011;46834;51.100;6.886;2022-08-19T11:46:35;5.57;;;4.43;;
60964;SDS011;46834;51.100;6.886;2022-08-19T11:49:03;4.70;;;4.05;;
60964;SDS011;46834;51.100;6.886;2022-08-19T11:51:34;5.00;;;4.50;;
60964;SDS011;46834;51.100;6.886;2022-08-19T11:53:59;5.00;;;4.18;;
60964;SDS011;46834;51.100;6.886;2022-08-19T11:56:26;6.47;;;4.60;;
60964;SDS011;46834;51.100;6.886;2022-08-19T11:58:53;4.78;;;4.18;;
60964;SDS011;46834;51.100;6.886;2022-08-19T12:01:21;5.55;;;3.90;;
60964;SDS011;46834;51.100;6.886;2022-08-19T12:03:51;5.80;;;4.15;;
60964;SDS011;46834;51.100;6.886;2022-08-19T12:06:21;5.38;;;3.53;;
60964;SDS011;46834;51.100;6.886;2022-08-19T12:08:54;8.55;;;4.15;;
60964;SDS011;46834;51.100;6.886;2022-08-19T12:11:22;5.03;;;4.20;;
60964;SDS011;46834;51.100;6.886;2022-08-19T12:13:48;3.97;;;3.67;;
60964;SDS011;46834;51.100;6.886;2022-08-19T12:16:16;5.35;;;4.00;;
60964;SDS011;46834;51.100;6.886;2022-08-19T12:18:46;4.15;;;3.60;;
60964;SDS011;46834;51.100;6.886;2022-08-19T12:21:13;4.75;;;3.40;;
60964;SDS011;46834;51.100;6.886;2022-08-19T12:23:41;4.95;;;3.85;;
60964;SDS011;46834;51.100;6.886;2022-08-19T12:26:10;5.13;;;4.07;;
60964;SDS011;46834;51.100;6.886;2022-08-19T12:28:36;5.80;;;4.55;;
60964;SDS011;46834;51.100;6.886;2022-08-19T12:31:03;6.20;;;4.40;;
60964;SDS011;46834;51.100;6.886;2022-08-19T12:33:29;4.95;;;4.43;;
60964;SDS011;46834;51.100;6.886;2022-08-19T12:35:59;6.93;;;4.68;;
60964;SDS011;46834;51.100;6.886;2022-08-19T12:38:29;4.72;;;4.10;;
60964;SDS011;46834;51.100;6.886;2022-08-19T12:40:55;4.93;;;3.67;;
60964;SDS011;46834;51.100;6.886;2022-08-19T12:43:21;7.95;;;4.07;;
60964;SDS011;46834;51.100;6.886;2022-08-19T12:45:46;6.28;;;4.32;;
60964;SDS011;46834;51.100;6.886;2022-08-19T12:48:12;6.97;;;4.32;;
60964;SDS011;46834;51.100;6.886;2022-08-19T12:50:39;4.05;;;3.40;;
60964;SDS011;46834;51.100;6.886;2022-08-19T12:53:07;3.95;;;3.33;;
60964;SDS011;46834;51.100;6.886;2022-08-19T12:55:33;4.80;;;3.47;;
60964;SDS011;46834;51.100;6.886;2022-08-19T12:57:58;5.43;;;3.35;;
60964;SDS011;46834;51.100;6.886;2022-08-19T13:00:26;6.55;;;4.10;;
60964;SDS011;46834;51.100;6.886;2022-08-19T13:02:53;4.90;;;4.10;;
60964;SDS011;46834;51.100;6.886;2022-08-19T13:05:20;6.25;;;4.30;;
60964;SDS011;46834;51.100;6.886;2022-08-19T13:07:51;5.05;;;3.85;;
60964;SDS011;46834;51.100;6.886;2022-08-19T13:10:22;4.05;;;3.65;;
60964;SDS011;46834;51.100;6.886;2022-08-19T13:12:52;4.72;;;3.45;;
60964;SDS011;46834;51.100;6.886;2022-08-19T13:15:19;4.15;;;3.42;;
60964;SDS011;46834;51.100;6.886;2022-08-19T13:17:47;4.05;;;3.20;;
60964;SDS011;46834;51.100;6.886;2022-08-19T13:20:16;8.13;;;3.00;;
60964;SDS011;46834;51.100;6.886;2022-08-19T13:22:44;3.10;;;2.80;;
60964;SDS011;46834;51.100;6.886;2022-08-19T13:25:12;3.67;;;3.35;;
60964;SDS011;46834;51.100;6.886;2022-08-19T13:27:41;9.35;;;3.88;;
60964;SDS011;46834;51.100;6.886;2022-08-19T13:30:07;3.65;;;3.33;;
60964;SDS011;46834;51.100;6.886;2022-08-19T13:32:54;3.90;;;3.50;;
60964;SDS011;46834;51.100;6.886;2022-08-19T13:35:36;3.70;;;2.88;;
60964;SDS011;46834;51.100;6.886;2022-08-19T13:38:12;4.05;;;3.42;;
60964;SDS011;46834;51.100;6.886;2022-08-19T13:40:41;3.38;;;3.08;;
60964;SDS011;46834;51.100;6.886;2022-08-19T13:43:07;2.95;;;2.65;;
60964;SDS011;46834;51.100;6.886;2022-08-19T13:45:34;4.93;;;2.90;;
60964;SDS011;46834;51.100;6.886;2022-08-19T13:48:02;3.35;;;2.55;;
60964;SDS011;46834;51.100;6.886;2022-08-19T13:50:33;5.85;;;3.08;;
60964;SDS011;46834;51.100;6.886;2022-08-19T13:53:06;3.47;;;2.58;;
60964;SDS011;46834;51.100;6.886;2022-08-19T13:55:34;3.20;;;2.60;;
60964;SDS011;46834;51.100;6.886;2022-08-19T13:58:02;5.85;;;2.60;;
60964;SDS011;46834;51.100;6.886;2022-08-19T14:00:29;3.42;;;2.65;;
60964;SDS011;46834;51.100;6.886;2022-08-19T14:02:58;4.07;;;2.92;;
60964;SDS011;46834;51.100;6.886;2022-08-19T14:05:25;4.35;;;3.03;;
60964;SDS011;46834;51.100;6.886;2022-08-19T14:07:53;5.78;;;3.00;;
60964;SDS011;46834;51.100;6.886;2022-08-19T14:10:20;4.07;;;2.30;;
60964;SDS011;46834;51.100;6.886;2022-08-19T14:12:48;2.97;;;2.35;;
60964;SDS011;46834;51.100;6.886;2022-08-19T14:15:16;3.08;;;2.30;;
60964;SDS011;46834;51.100;6.886;2022-08-19T14:17:43;3.53;;;2.00;;
60964;SDS011;46834;51.100;6.886;2022-08-19T14:20:13;4.53;;;2.50;;
60964;SDS011;46834;51.100;6.886;2022-08-19T14:22:41;2.25;;;2.05;;
60964;SDS011;46834;51.100;6.886;2022-08-19T14:25:09;4.78;;;2.72;;
60964;SDS011;46834;51.100;6.886;2022-08-19T14:27:39;6.75;;;2.53;;
60964;SDS011;46834;51.100;6.886;2022-08-19T14:30:07;3.67;;;2.63;;
60964;SDS011;46834;51.100;6.886;2022-08-19T14:32:36;2.05;;;1.90;;
60964;SDS011;46834;51.100;6.886;2022-08-19T14:35:02;2.33;;;2.10;;
60964;SDS011;46834;51.100;6.886;2022-08-19T14:37:29;3.10;;;2.28;;
60964;SDS011;46834;51.100;6.886;2022-08-19T14:39:55;2.30;;;2.10;;
60964;SDS011;46834;51.100;6.886;2022-08-19T14:42:21;3.53;;;2.30;;
60964;SDS011;46834;51.100;6.886;2022-08-19T14:44:47;2.38;;;1.95;;
60964;SDS011;46834;51.100;6.886;2022-08-19T14:47:13;2.80;;;2.03;;
60964;SDS011;46834;51.100;6.886;2022-08-19T14:49:38;7.78;;;1.90;;
60964;SDS011;46834;51.100;6.886;2022-08-19T14:52:04;3.63;;;1.83;;
60964;SDS011;46834;51.100;6.886;2022-08-19T14:54:31;4.63;;;2.28;;
60964;SDS011;46834;51.100;6.886;2022-08-19T14:56:57;4.38;;;2.05;;
60964;SDS011;46834;51.100;6.886;2022-08-19T14:59:23;2.50;;;2.28;;
60964;SDS011;46834;51.100;6.886;2022-08-19T15:01:49;3.28;;;1.80;;
60964;SDS011;46834;51.100;6.886;2022-08-19T15:04:15;2.53;;;2.00;;
60964;SDS011;46834;51.100;6.886;2022-08-19T15:06:41;5.28;;;2.00;;